createdAt,value
2018-05-09T00:01:12.914Z,24.80
2018-05-09T00:03:39.106Z,24.80
2018-05-09T00:06:05.283Z,24.60
2018-05-09T00:08:31.509Z,24.60
2018-05-09T00:10:57.666Z,24.70
2018-05-09T00:13:23.862Z,24.60
2018-05-09T00:15:50.034Z,24.50
2018-05-09T00:18:16.204Z,24.50
2018-05-09T00:20:42.363Z,24.40
2018-05-09T00:23:08.514Z,24.40
2018-05-09T00:25:34.746Z,24.40
2018-05-09T00:28:01.696Z,24.30
2018-05-09T00:30:27.852Z,22.80
2018-05-09T00:32:53.992Z,24.30
2018-05-09T00:35:20.197Z,24.30
2018-05-09T00:37:46.340Z,24.30
2018-05-09T00:40:12.508Z,24.40
2018-05-09T00:42:38.658Z,24.60
2018-05-09T00:45:04.836Z,24.50
2018-05-09T00:47:31.038Z,24.50
2018-05-09T00:49:57.203Z,24.50
2018-05-09T00:52:23.366Z,24.50
2018-05-09T00:54:49.515Z,24.40
2018-05-09T00:57:15.654Z,24.30
2018-05-09T00:59:41.802Z,24.30
2018-05-09T01:02:07.944Z,24.40
2018-05-09T01:04:34.096Z,24.20
2018-05-09T01:07:00.266Z,24.10
2018-05-09T01:09:26.455Z,24.00
2018-05-09T01:11:53.429Z,24.00
2018-05-09T01:14:20.335Z,23.90
2018-05-09T01:16:46.522Z,23.90
2018-05-09T01:19:12.683Z,23.90
2018-05-09T01:21:38.872Z,23.90
2018-05-09T01:24:05.824Z,23.70
2018-05-09T01:26:31.994Z,23.70
2018-05-09T01:28:58.183Z,23.60
2018-05-09T01:31:25.111Z,23.60
2018-05-09T01:33:51.307Z,23.50
2018-05-09T01:36:17.463Z,23.40
2018-05-09T01:38:43.615Z,23.40
2018-05-09T01:41:09.800Z,23.40
2018-05-09T01:43:35.950Z,23.20
2018-05-09T01:46:02.119Z,23.20
2018-05-09T01:48:28.270Z,23.30
2018-05-09T01:50:54.413Z,23.10
2018-05-09T01:53:20.594Z,23.10
2018-05-09T01:55:46.787Z,23.00
2018-05-09T01:58:12.955Z,22.90
2018-05-09T02:00:39.139Z,22.90
2018-05-09T02:03:06.049Z,22.90
2018-05-09T02:05:33.701Z,22.90
2018-05-09T02:07:59.860Z,22.90
2018-05-09T02:10:27.484Z,22.90
2018-05-09T02:12:53.646Z,22.90
2018-05-09T02:15:21.325Z,22.80
2018-05-09T02:17:47.498Z,22.80
2018-05-09T02:20:13.664Z,22.90
2018-05-09T02:22:39.839Z,22.80
2018-05-09T02:25:06.742Z,22.70
2018-05-09T02:27:32.903Z,22.70
2018-05-09T02:29:59.061Z,22.70
2018-05-09T02:32:25.248Z,22.70
2018-05-09T02:34:51.389Z,22.70
2018-05-09T02:37:17.556Z,22.70
2018-05-09T02:39:43.720Z,22.60
2018-05-09T02:42:09.900Z,22.70
2018-05-09T02:44:36.068Z,22.70
2018-05-09T02:47:02.235Z,22.50
2018-05-09T02:49:28.407Z,22.50
2018-05-09T02:51:54.554Z,22.50
2018-05-09T02:54:20.747Z,22.40
2018-05-09T02:56:46.921Z,22.40
2018-05-09T02:59:13.096Z,22.50
2018-05-09T03:01:39.254Z,22.40
2018-05-09T03:04:05.413Z,22.40
2018-05-09T03:06:31.608Z,22.30
2018-05-09T03:08:59.255Z,22.30
2018-05-09T03:11:25.404Z,22.30
2018-05-09T03:13:51.590Z,22.20
2018-05-09T03:16:17.740Z,22.30
2018-05-09T03:18:43.952Z,21.90
2018-05-09T03:21:10.066Z,22.00
2018-05-09T03:23:36.993Z,22.10
2018-05-09T03:26:03.159Z,22.10
2018-05-09T03:28:29.315Z,22.10
2018-05-09T03:30:55.465Z,22.10
2018-05-09T03:33:21.629Z,22.10
2018-05-09T03:35:47.757Z,22.10
2018-05-09T03:38:13.907Z,22.10
2018-05-09T03:40:40.832Z,22.10
2018-05-09T03:43:06.970Z,22.10
2018-05-09T03:45:33.123Z,22.00
2018-05-09T03:47:59.336Z,22.30
2018-05-09T03:50:25.508Z,22.10
2018-05-09T03:52:51.641Z,22.10
2018-05-09T03:55:18.534Z,22.30
2018-05-09T03:57:44.723Z,22.20
2018-05-09T04:00:10.870Z,22.30
2018-05-09T04:02:55.581Z,22.40
2018-05-09T04:05:40.116Z,22.30
2018-05-09T04:08:25.719Z,22.40
2018-05-09T04:10:51.831Z,22.30
2018-05-09T04:13:18.062Z,22.30
2018-05-09T04:15:44.147Z,20.60
2018-05-09T04:18:11.168Z,22.30
2018-05-09T04:20:37.406Z,22.40
2018-05-09T04:23:03.467Z,22.40
2018-05-09T04:25:29.611Z,22.50
2018-05-09T04:27:55.767Z,22.40
2018-05-09T04:30:21.912Z,22.60
2018-05-09T04:32:48.812Z,22.90
2018-05-09T04:35:14.973Z,22.80
2018-05-09T04:37:41.131Z,22.90
2018-05-09T04:40:07.306Z,23.00
2018-05-09T04:42:33.462Z,22.90
2018-05-09T04:44:59.610Z,22.90
2018-05-09T04:47:25.808Z,23.00
2018-05-09T04:49:52.013Z,22.90
2018-05-09T04:52:18.169Z,22.80
2018-05-09T04:54:44.309Z,22.80
2018-05-09T04:57:10.454Z,22.90
2018-05-09T04:59:36.621Z,22.90
2018-05-09T05:02:02.775Z,23.00
2018-05-09T05:04:28.915Z,22.90
2018-05-09T05:06:55.137Z,23.00
2018-05-09T05:09:21.260Z,23.10
2018-05-09T05:11:47.446Z,23.20
2018-05-09T05:14:13.578Z,23.40
2018-05-09T05:16:39.714Z,23.50
2018-05-09T05:19:05.877Z,23.60
2018-05-09T05:21:32.013Z,23.60
2018-05-09T05:23:58.947Z,23.50
2018-05-09T05:26:25.104Z,23.40
2018-05-09T05:28:51.963Z,23.40
2018-05-09T05:31:18.102Z,23.30
2018-05-09T05:33:44.280Z,23.30
2018-05-09T05:36:10.400Z,23.40
2018-05-09T05:38:36.552Z,23.50
2018-05-09T05:41:02.708Z,23.40
2018-05-09T05:43:28.858Z,23.60
2018-05-09T05:45:55.034Z,23.60
2018-05-09T05:48:21.210Z,23.70
2018-05-09T05:50:47.365Z,23.80
2018-05-09T05:53:13.519Z,23.90
2018-05-09T05:55:39.689Z,24.00
2018-05-09T05:58:05.883Z,24.00
2018-05-09T06:00:32.050Z,24.20
2018-05-09T06:02:58.190Z,22.60
2018-05-09T06:05:24.357Z,24.40
2018-05-09T06:07:50.490Z,24.50
2018-05-09T06:10:16.653Z,24.60
2018-05-09T06:12:42.877Z,24.70
2018-05-09T06:15:09.033Z,24.80
2018-05-09T06:17:35.198Z,24.70
2018-05-09T06:20:01.333Z,24.70
2018-05-09T06:22:28.223Z,24.80
2018-05-09T06:24:54.362Z,24.80
2018-05-09T06:27:20.486Z,24.90
2018-05-09T06:29:46.615Z,24.90
2018-05-09T06:32:12.768Z,25.00
2018-05-09T06:34:38.914Z,25.00
2018-05-09T06:37:05.073Z,25.20
2018-05-09T06:39:31.239Z,25.40
2018-05-09T06:41:57.429Z,25.40
2018-05-09T06:44:23.558Z,25.40
2018-05-09T06:46:49.697Z,25.60
2018-05-09T06:49:15.843Z,25.70
2018-05-09T06:51:41.984Z,25.60
2018-05-09T06:54:08.131Z,25.80
2018-05-09T06:56:34.296Z,25.90
2018-05-09T06:59:00.470Z,26.00
2018-05-09T07:01:26.604Z,26.30
2018-05-09T07:03:52.738Z,26.40
2018-05-09T07:06:18.924Z,26.80
2018-05-09T07:08:45.034Z,26.80
2018-05-09T07:11:11.182Z,26.90
2018-05-09T07:13:37.328Z,26.80
2018-05-09T07:16:03.465Z,26.80
2018-05-09T07:18:30.362Z,27.00
2018-05-09T07:20:56.535Z,27.00
2018-05-09T07:23:22.684Z,27.10
2018-05-09T07:25:48.827Z,27.30
2018-05-09T07:28:14.967Z,27.30
2018-05-09T07:30:41.108Z,25.70
2018-05-09T07:33:07.252Z,27.40
2018-05-09T07:35:33.443Z,27.50
2018-05-09T07:37:59.561Z,26.10
2018-05-09T07:40:25.755Z,27.40
2018-05-09T07:42:51.870Z,27.70
2018-05-09T07:45:17.988Z,28.10
2018-05-09T07:47:44.916Z,28.60
2018-05-09T07:50:11.008Z,28.60
2018-05-09T07:52:37.171Z,28.90
2018-05-09T07:55:03.327Z,29.10
2018-05-09T07:57:29.475Z,29.20
2018-05-09T07:59:56.396Z,29.80
2018-05-09T08:02:23.279Z,30.10
2018-05-09T08:04:49.419Z,30.10
2018-05-09T08:07:15.580Z,30.30
2018-05-09T08:09:41.741Z,30.50
2018-05-09T08:12:07.873Z,30.60
2018-05-09T08:14:34.007Z,29.30
2018-05-09T08:17:00.163Z,31.00
2018-05-09T08:19:26.298Z,31.10
2018-05-09T08:21:52.459Z,31.50
2018-05-09T08:24:18.600Z,31.50
2018-05-09T08:26:44.842Z,31.70
2018-05-09T08:29:11.027Z,31.80
2018-05-09T08:31:37.179Z,32.00
2018-05-09T08:34:03.355Z,32.10
2018-05-09T08:36:29.496Z,32.40
2018-05-09T08:38:56.396Z,32.90
2018-05-09T08:41:22.559Z,31.50
2018-05-09T08:43:48.717Z,33.10
2018-05-09T08:46:14.854Z,33.40
2018-05-09T08:48:41.051Z,33.70
2018-05-09T08:51:07.238Z,33.70
2018-05-09T08:53:33.380Z,33.90
2018-05-09T08:55:59.535Z,34.10
2018-05-09T08:58:25.701Z,34.40
2018-05-09T09:00:51.846Z,34.50
2018-05-09T09:03:18.008Z,34.70
2018-05-09T09:05:44.146Z,34.90
2018-05-09T09:08:10.273Z,35.10
2018-05-09T09:10:36.443Z,35.30
2018-05-09T09:13:02.586Z,35.50
2018-05-09T09:15:28.787Z,35.50
2018-05-09T09:17:54.874Z,35.80
2018-05-09T09:20:21.013Z,34.40
2018-05-09T09:22:47.138Z,36.00
2018-05-09T09:25:13.275Z,36.20
2018-05-09T09:27:39.402Z,36.40
2018-05-09T09:30:05.576Z,36.60
2018-05-09T09:32:31.742Z,36.70
2018-05-09T09:34:57.877Z,36.80
2018-05-09T09:37:24.767Z,37.40
2018-05-09T09:39:50.930Z,37.30
2018-05-09T09:42:17.098Z,37.50
2018-05-09T09:44:43.227Z,38.00
2018-05-09T09:47:09.372Z,38.00
2018-05-09T09:49:35.512Z,38.40
2018-05-09T09:52:01.709Z,38.70
2018-05-09T09:54:28.602Z,39.10
2018-05-09T09:56:54.749Z,39.00
2018-05-09T09:59:20.904Z,39.10
2018-05-09T10:01:47.040Z,39.60
2018-05-09T10:04:13.175Z,39.60
2018-05-09T10:06:39.322Z,39.70
2018-05-09T10:09:05.467Z,39.90
2018-05-09T10:11:31.619Z,39.90
2018-05-09T10:13:57.762Z,40.00
2018-05-09T10:16:23.954Z,40.40
2018-05-09T10:18:50.077Z,40.80
2018-05-09T10:21:16.273Z,40.90
2018-05-09T10:23:42.413Z,40.80
2018-05-09T10:26:08.554Z,40.90
2018-05-09T10:28:34.722Z,40.90
2018-05-09T10:31:01.637Z,41.20
2018-05-09T10:33:27.803Z,41.20
2018-05-09T10:35:54.714Z,41.70
2018-05-09T10:38:20.943Z,41.60
2018-05-09T10:40:47.123Z,41.80
2018-05-09T10:43:14.077Z,42.20
2018-05-09T10:45:40.271Z,42.20
2018-05-09T10:48:06.474Z,42.30
2018-05-09T10:50:32.686Z,42.30
2018-05-09T10:52:58.909Z,42.30
2018-05-09T10:55:25.122Z,42.50
2018-05-09T10:57:51.258Z,42.30
2018-05-09T11:00:17.393Z,42.30
2018-05-09T11:02:43.541Z,42.50
2018-05-09T11:05:10.459Z,42.70
2018-05-09T11:07:36.606Z,42.70
2018-05-09T11:10:02.758Z,42.70
2018-05-09T11:12:28.878Z,42.90
2018-05-09T11:14:55.008Z,42.90
2018-05-09T11:17:21.896Z,43.00
2018-05-09T11:19:48.043Z,43.00
2018-05-09T11:22:14.192Z,43.10
2018-05-09T11:24:40.353Z,43.30
2018-05-09T11:27:06.486Z,43.10
2018-05-09T11:29:32.630Z,43.10
2018-05-09T11:31:58.790Z,43.10
2018-05-09T11:34:25.795Z,43.10
2018-05-09T11:36:51.925Z,43.00
2018-05-09T11:39:18.160Z,43.20
2018-05-09T11:41:44.361Z,43.40
2018-05-09T11:44:10.540Z,43.50
2018-05-09T11:46:36.716Z,43.60
2018-05-09T11:49:02.934Z,43.80
2018-05-09T11:51:29.150Z,43.90
2018-05-09T11:53:55.401Z,43.20
2018-05-09T11:56:21.550Z,43.80
2018-05-09T11:58:47.687Z,43.60
2018-05-09T12:01:13.835Z,43.20
2018-05-09T12:03:39.999Z,42.90
2018-05-09T12:06:06.967Z,42.90
2018-05-09T12:08:33.229Z,42.90
2018-05-09T12:10:59.383Z,43.10
2018-05-09T12:13:25.547Z,43.30
2018-05-09T12:15:51.722Z,43.40
2018-05-09T12:18:17.876Z,43.50
2018-05-09T12:20:44.045Z,43.20
2018-05-09T12:23:11.015Z,42.60
2018-05-09T12:25:37.156Z,42.60
2018-05-09T12:28:03.304Z,42.70
2018-05-09T12:30:29.467Z,43.00
2018-05-09T12:32:55.612Z,42.90
2018-05-09T12:35:22.496Z,42.70
2018-05-09T12:37:48.656Z,42.70
2018-05-09T12:40:14.801Z,42.40
2018-05-09T12:42:40.959Z,42.60
2018-05-09T12:45:07.135Z,42.60
2018-05-09T12:47:33.283Z,42.30
2018-05-09T12:49:59.439Z,42.40
2018-05-09T12:52:26.366Z,42.60
2018-05-09T12:54:52.537Z,42.80
2018-05-09T12:57:18.689Z,42.50
2018-05-09T12:59:44.822Z,42.40
2018-05-09T13:02:11.002Z,42.20
2018-05-09T13:04:37.175Z,42.00
2018-05-09T13:07:04.067Z,41.60
2018-05-09T13:09:30.299Z,41.70
2018-05-09T13:11:56.491Z,41.50
2018-05-09T13:14:23.385Z,40.90
2018-05-09T13:16:49.532Z,40.80
2018-05-09T13:19:15.679Z,40.70
2018-05-09T13:21:41.855Z,41.00
2018-05-09T13:24:08.005Z,41.00
2018-05-09T13:26:34.180Z,41.30
2018-05-09T13:29:00.332Z,41.30
2018-05-09T13:31:27.214Z,42.00
2018-05-09T13:33:53.379Z,41.90
2018-05-09T13:36:19.523Z,42.00
2018-05-09T13:38:45.702Z,41.90
2018-05-09T13:41:11.830Z,42.00
2018-05-09T13:43:37.967Z,41.90
2018-05-09T13:46:04.124Z,40.20
2018-05-09T13:48:30.282Z,42.10
2018-05-09T13:50:56.520Z,42.40
2018-05-09T13:53:22.679Z,42.50
2018-05-09T13:55:48.810Z,42.70
2018-05-09T13:58:14.954Z,42.90
2018-05-09T14:00:41.151Z,43.20
2018-05-09T14:03:07.290Z,43.70
2018-05-09T14:05:33.444Z,44.00
2018-05-09T14:07:59.604Z,44.20
2018-05-09T14:10:25.764Z,44.30
2018-05-09T14:12:51.911Z,44.40
2018-05-09T14:15:18.058Z,44.40
2018-05-09T14:17:44.944Z,44.40
2018-05-09T14:20:11.101Z,44.30
2018-05-09T14:22:37.247Z,44.50
2018-05-09T14:25:03.396Z,44.50
2018-05-09T14:27:29.547Z,44.40
2018-05-09T14:29:55.708Z,44.60
2018-05-09T14:32:21.977Z,44.70
2018-05-09T14:34:48.775Z,44.90
2018-05-09T14:37:15.673Z,45.00
2018-05-09T14:39:41.838Z,45.00
2018-05-09T14:42:08.724Z,44.80
2018-05-09T14:44:34.880Z,44.70
2018-05-09T14:47:01.047Z,44.50
2018-05-09T14:49:27.207Z,44.30
2018-05-09T14:51:53.421Z,44.40
2018-05-09T14:54:19.572Z,44.20
2018-05-09T14:56:45.757Z,44.20
2018-05-09T14:59:11.910Z,44.10
2018-05-09T15:01:38.059Z,43.90
2018-05-09T15:04:04.211Z,43.90
2018-05-09T15:06:31.128Z,43.80
2018-05-09T15:08:58.010Z,43.50
2018-05-09T15:11:24.172Z,43.50
2018-05-09T15:13:50.353Z,43.30
2018-05-09T15:16:16.550Z,43.20
2018-05-09T15:18:43.440Z,42.60
2018-05-09T15:21:09.594Z,42.60
2018-05-09T15:23:35.731Z,42.20
2018-05-09T15:26:01.879Z,42.00
2018-05-09T15:28:28.030Z,41.80
2018-05-09T15:30:54.170Z,41.60
2018-05-09T15:33:20.313Z,41.30
2018-05-09T15:35:46.470Z,41.20
2018-05-09T15:38:12.579Z,39.60
2018-05-09T15:40:38.708Z,40.90
2018-05-09T15:43:04.960Z,40.70
2018-05-09T15:45:31.905Z,40.50
2018-05-09T15:47:58.305Z,40.50
2018-05-09T15:50:24.461Z,40.30
2018-05-09T15:52:50.646Z,40.50
2018-05-09T15:55:16.903Z,40.20
2018-05-09T15:57:43.088Z,40.10
2018-05-09T16:00:09.231Z,39.80
2018-05-09T16:02:35.352Z,39.50
2018-05-09T16:05:02.266Z,39.10
2018-05-09T16:07:29.167Z,39.00
2018-05-09T16:09:56.203Z,39.00
2018-05-09T16:12:22.362Z,38.90
2018-05-09T16:14:48.516Z,38.90
2018-05-09T16:17:14.703Z,38.70
2018-05-09T16:19:41.602Z,38.70
2018-05-09T16:22:07.759Z,38.70
2018-05-09T16:24:33.918Z,38.50
2018-05-09T16:27:00.071Z,38.30
2018-05-09T16:29:26.221Z,38.10
2018-05-09T16:31:52.399Z,37.90
2018-05-09T16:34:18.535Z,37.70
2018-05-09T16:36:44.698Z,37.50
2018-05-09T16:39:10.885Z,37.60
2018-05-09T16:41:37.029Z,37.50
2018-05-09T16:44:03.247Z,37.40
2018-05-09T16:46:29.439Z,37.40
2018-05-09T16:48:55.649Z,37.30
2018-05-09T16:51:21.824Z,37.20
2018-05-09T16:53:48.774Z,36.90
2018-05-09T16:56:14.946Z,36.90
2018-05-09T16:58:41.152Z,36.80
2018-05-09T17:01:07.318Z,36.80
2018-05-09T17:03:33.512Z,36.50
2018-05-09T17:05:59.674Z,36.30
2018-05-09T17:08:25.951Z,36.00
2018-05-09T17:10:52.095Z,35.90
2018-05-09T17:13:18.216Z,35.60
2018-05-09T17:15:44.362Z,35.40
2018-05-09T17:18:10.471Z,35.20
2018-05-09T17:20:36.640Z,35.10
2018-05-09T17:23:03.548Z,35.00
2018-05-09T17:25:29.727Z,34.90
2018-05-09T17:27:55.911Z,35.00
2018-05-09T17:30:22.144Z,35.00
2018-05-09T17:32:48.227Z,34.90
2018-05-09T17:35:14.363Z,33.00
2018-05-09T17:37:40.512Z,34.70
2018-05-09T17:40:06.663Z,34.50
2018-05-09T17:42:32.814Z,34.30
2018-05-09T17:44:58.960Z,34.20
2018-05-09T17:47:25.951Z,34.00
2018-05-09T17:49:52.070Z,33.90
2018-05-09T17:52:18.951Z,33.80
2018-05-09T17:54:45.943Z,33.80
2018-05-09T17:57:12.111Z,33.70
2018-05-09T17:59:38.264Z,33.60
2018-05-09T18:02:04.418Z,33.60
2018-05-09T18:04:30.543Z,33.40
2018-05-09T18:06:56.723Z,33.30
2018-05-09T18:09:22.884Z,33.20
2018-05-09T18:11:49.011Z,33.40
2018-05-09T18:14:15.203Z,33.10
2018-05-09T18:16:41.391Z,33.00
2018-05-09T18:19:07.538Z,33.10
2018-05-09T18:21:33.679Z,33.00
2018-05-09T18:23:59.774Z,32.80
2018-05-09T18:26:25.923Z,32.60
2018-05-09T18:28:52.068Z,32.60
2018-05-09T18:31:18.216Z,32.50
2018-05-09T18:33:45.851Z,32.40
2018-05-09T18:36:11.978Z,32.40
2018-05-09T18:38:38.155Z,32.40
2018-05-09T18:41:04.313Z,32.30
2018-05-09T18:43:30.436Z,32.20
2018-05-09T18:45:57.321Z,32.00
2018-05-09T18:48:23.459Z,31.90
2018-05-09T18:50:49.655Z,31.80
2018-05-09T18:53:16.567Z,31.60
2018-05-09T18:55:42.706Z,31.70
2018-05-09T18:58:08.866Z,31.40
2018-05-09T19:00:35.765Z,31.10
2018-05-09T19:03:01.914Z,31.10
2018-05-09T19:05:28.071Z,31.00
2018-05-09T19:07:54.222Z,30.70
2018-05-09T19:10:21.150Z,30.80
2018-05-09T19:12:48.053Z,30.70
2018-05-09T19:15:14.182Z,30.70
2018-05-09T19:17:40.693Z,30.70
2018-05-09T19:20:06.873Z,30.60
2018-05-09T19:22:33.044Z,30.60
2018-05-09T19:24:59.934Z,30.60
2018-05-09T19:27:26.112Z,30.80
2018-05-09T19:29:52.275Z,30.60
2018-05-09T19:32:18.425Z,30.50
2018-05-09T19:34:44.544Z,30.60
2018-05-09T19:37:10.727Z,30.20
2018-05-09T19:39:36.921Z,30.20
2018-05-09T19:42:03.821Z,30.20
2018-05-09T19:44:29.919Z,30.10
2018-05-09T19:46:56.030Z,30.20
2018-05-09T19:49:22.902Z,30.00
2018-05-09T19:51:49.013Z,28.40
2018-05-09T19:54:15.129Z,29.90
2018-05-09T19:56:41.253Z,29.70
2018-05-09T19:59:07.358Z,29.70
2018-05-09T20:01:33.459Z,29.60
2018-05-09T20:03:59.591Z,29.50
2018-05-09T20:06:25.723Z,29.30
2018-05-09T20:08:51.855Z,29.30
2018-05-09T20:11:18.058Z,29.10
2018-05-09T20:13:44.220Z,29.20
2018-05-09T20:16:10.387Z,29.00
2018-05-09T20:18:36.524Z,29.00
2018-05-09T20:21:02.660Z,28.80
2018-05-09T20:23:29.639Z,28.70
2018-05-09T20:25:55.733Z,28.70
2018-05-09T20:28:21.858Z,28.60
2018-05-09T20:30:54.008Z,28.50
2018-05-09T20:33:20.164Z,28.40
2018-05-09T20:35:46.299Z,28.40
2018-05-09T20:38:12.433Z,28.30
2018-05-09T20:40:38.546Z,28.50
2018-05-09T20:43:04.677Z,28.20
2018-05-09T20:45:30.848Z,28.10
2018-05-09T20:47:56.982Z,28.20
2018-05-09T20:50:23.102Z,28.00
2018-05-09T20:52:49.220Z,28.00
2018-05-09T20:55:26.510Z,28.00
2018-05-09T20:57:52.621Z,27.80
2018-05-09T21:00:18.806Z,27.70
2018-05-09T21:02:44.943Z,27.90
2018-05-09T21:05:11.092Z,27.80
2018-05-09T21:07:54.642Z,27.90
2018-05-09T21:10:20.771Z,27.80
2018-05-09T21:12:47.002Z,27.70
2018-05-09T21:15:13.814Z,27.80
2018-05-09T21:17:39.945Z,27.80
2018-05-09T21:20:06.914Z,27.80
2018-05-09T21:22:32.984Z,27.70
2018-05-09T21:24:59.107Z,27.60
2018-05-09T21:27:25.305Z,27.60
2018-05-09T21:29:51.442Z,27.50
2018-05-09T21:32:17.577Z,27.40
2018-05-09T21:34:43.702Z,27.50
2018-05-09T21:37:09.831Z,27.30
2018-05-09T21:39:35.955Z,27.10
2018-05-09T21:42:02.085Z,27.00
2018-05-09T21:44:28.206Z,26.90
2018-05-09T21:46:54.347Z,26.80
2018-05-09T21:49:20.459Z,26.60
2018-05-09T21:51:46.598Z,26.60
2018-05-09T21:54:13.468Z,26.40
2018-05-09T21:56:39.595Z,26.40
2018-05-09T21:59:05.782Z,26.30
2018-05-09T22:01:31.908Z,26.10
2018-05-09T22:03:58.046Z,26.10
2018-05-09T22:06:24.936Z,26.10
2018-05-09T22:08:51.082Z,26.00
2018-05-09T22:11:17.219Z,26.20
2018-05-09T22:13:43.332Z,26.00
2018-05-09T22:16:09.505Z,25.90
2018-05-09T22:18:35.656Z,24.80
2018-05-09T22:21:01.795Z,25.70
2018-05-09T22:23:28.691Z,25.50
2018-05-09T22:25:54.816Z,25.50
2018-05-09T22:28:20.939Z,25.40
2018-05-09T22:30:47.811Z,25.40
2018-05-09T22:33:13.926Z,25.40
2018-05-09T22:35:40.095Z,25.40
2018-05-09T22:38:06.267Z,25.30
2018-05-09T22:40:33.145Z,25.30
2018-05-09T22:42:59.270Z,25.40
2018-05-09T22:48:18.171Z,25.20
2018-05-09T22:50:44.304Z,25.10
2018-05-09T22:53:10.437Z,25.00
2018-05-09T22:55:36.623Z,25.10
2018-05-09T22:58:02.734Z,25.00
2018-05-09T23:00:28.889Z,25.00
2018-05-09T23:02:54.975Z,25.00
2018-05-09T23:05:21.144Z,24.90
2018-05-09T23:07:47.308Z,24.80
2018-05-09T23:10:13.495Z,24.80
2018-05-09T23:12:39.642Z,24.80
2018-05-09T23:15:05.852Z,24.80
2018-05-09T23:17:32.813Z,24.80
2018-05-09T23:19:59.667Z,24.80
2018-05-09T23:22:26.569Z,24.90
2018-05-09T23:24:52.794Z,24.90
2018-05-09T23:27:19.655Z,25.00
2018-05-09T23:32:38.551Z,24.80
2018-05-09T23:35:04.747Z,24.80
2018-05-09T23:37:30.909Z,24.80
2018-05-09T23:39:57.053Z,24.60
2018-05-09T23:42:23.201Z,24.50
2018-05-09T23:44:49.371Z,24.50
2018-05-09T23:47:15.522Z,24.50
2018-05-09T23:49:41.738Z,24.50
2018-05-09T23:52:09.330Z,24.60
2018-05-09T23:54:35.478Z,22.70
2018-05-09T23:57:01.644Z,24.50
2018-05-09T23:59:27.803Z,24.30
